Time;durP1;ratioP1;P1;durP2;ratioP2;P2;SDS_P1;SDS_P2;PMS_P1;PMS_P2;Temp;Humidity;BMP_temperature;BMP_pressure;BME280_temperature;BME280_humidity;BME280_pressure;Samples;Min_cycle;Max_cycle;Signal;HPM_P1;HPM_P2
2023/04/16 00:01:27;;;;;;;24.08;12.20;;;8.60;99.90;;;;;;5106379;28;20048;-57
2023/04/16 00:03:55;;;;;;;18.73;12.18;;;8.60;99.90;;;;;;5105064;28;20036;-56
2023/04/16 00:06:23;;;;;;;21.02;12.43;;;8.60;99.90;;;;;;5099970;28;20044;-55
2023/04/16 00:08:50;;;;;;;18.88;11.45;;;8.60;99.90;;;;;;5107912;28;20067;-55
2023/04/16 00:11:18;;;;;;;19.00;11.95;;;8.60;99.90;;;;;;5107462;28;20509;-56
2023/04/16 00:13:45;;;;;;;19.42;12.20;;;8.60;99.90;;;;;;5103754;28;20048;-56
2023/04/16 00:16:13;;;;;;;15.75;10.52;;;8.60;99.90;;;;;;5108035;28;20043;-56
2023/04/16 00:18:41;;;;;;;18.25;11.20;;;8.60;99.90;;;;;;5106635;28;20059;-55
2023/04/16 00:21:09;;;;;;;16.65;12.18;;;8.60;99.90;;;;;;5106004;28;20070;-54
2023/04/16 00:23:37;;;;;;;22.08;12.80;;;8.60;99.90;;;;;;5099818;28;20047;-55
2023/04/16 00:26:05;;;;;;;20.35;12.27;;;8.60;99.90;;;;;;5102220;28;20482;-55
2023/04/16 00:28:32;;;;;;;23.42;13.52;;;8.60;99.90;;;;;;5082231;28;20047;-55
2023/04/16 00:31:00;;;;;;;19.92;12.75;;;8.60;99.90;;;;;;5102542;28;20502;-56
2023/04/16 00:33:29;;;;;;;22.70;12.88;;;8.60;99.90;;;;;;5078942;28;20048;-56
2023/04/16 00:35:57;;;;;;;20.45;13.52;;;;;;;;;;5079377;28;20063;-55
2023/04/16 00:38:29;;;;;;;20.35;13.10;;;8.60;99.90;;;;;;5105665;28;20040;-55
2023/04/16 00:41:00;;;;;;;17.95;12.90;;;;;;;;;;5103333;28;20399;-56
2023/04/16 00:43:27;;;;;;;23.52;15.23;;;8.60;99.90;;;;;;5104855;28;20051;-56
2023/04/16 00:45:56;;;;;;;27.42;15.98;;;8.60;99.90;;;;;;5078370;28;20048;-55
2023/04/16 00:48:26;;;;;;;23.17;15.02;;;8.60;99.90;;;;;;5109234;28;20518;-56
2023/04/16 00:50:54;;;;;;;24.50;14.70;;;8.60;99.90;;;;;;5109379;28;20054;-56
2023/04/16 00:53:24;;;;;;;33.23;17.80;;;8.60;99.90;;;;;;5106750;28;20051;-56
2023/04/16 00:55:54;;;;;;;26.10;17.25;;;8.60;99.90;;;;;;5075937;28;20299;-57
2023/04/16 00:58:24;;;;;;;26.70;17.70;;;8.60;99.90;;;;;;5090810;28;20058;-56
2023/04/16 01:00:51;;;;;;;27.88;18.05;;;8.60;99.90;;;;;;5110482;28;20058;-56
2023/04/16 01:03:19;;;;;;;32.45;17.60;;;8.60;99.90;;;;;;5088631;28;20529;-56
2023/04/16 01:05:48;;;;;;;31.25;18.08;;;8.60;99.90;;;;;;5104716;28;20046;-56
2023/04/16 01:08:20;;;;;;;27.73;17.70;;;8.70;99.90;;;;;;5105952;28;20039;-56
2023/04/16 01:10:48;;;;;;;27.33;16.63;;;8.70;99.90;;;;;;5099372;28;20047;-56
2023/04/16 01:13:16;;;;;;;25.95;15.98;;;8.60;99.90;;;;;;5087793;28;20048;-56
2023/04/16 01:15:43;;;;;;;27.25;16.08;;;8.60;99.90;;;;;;5098366;28;20036;-56
2023/04/16 01:18:15;;;;;;;30.38;16.88;;;8.60;99.90;;;;;;5092058;28;20377;-55
2023/04/16 01:20:44;;;;;;;28.60;17.25;;;8.60;99.90;;;;;;5098804;28;20048;-56
2023/04/16 01:23:13;;;;;;;23.63;15.37;;;8.60;99.90;;;;;;5111311;28;20044;-56
2023/04/16 01:25:40;;;;;;;30.83;16.00;;;8.60;99.90;;;;;;5093109;28;20299;-56
2023/04/16 01:28:08;;;;;;;26.05;15.90;;;8.60;99.90;;;;;;5092943;28;20522;-56
2023/04/16 01:30:36;;;;;;;24.45;15.07;;;8.60;99.90;;;;;;5086069;28;20050;-54
2023/04/16 01:33:32;;;;;;;22.10;14.30;;;8.60;99.90;;;;;;5098650;28;20070;-55
2023/04/16 01:36:00;;;;;;;23.75;15.05;;;8.60;99.90;;;;;;5112958;28;20047;-55
2023/04/16 01:38:28;;;;;;;23.38;15.77;;;8.60;99.90;;;;;;5112772;28;20040;-56
2023/04/16 01:40:58;;;;;;;24.00;15.52;;;8.60;99.90;;;;;;5111704;28;20055;-56
2023/04/16 01:43:26;;;;;;;24.70;14.95;;;8.60;99.90;;;;;;5093277;28;20040;-56
2023/04/16 01:46:11;;;;;;;20.73;13.85;;;8.60;99.90;;;;;;5111010;28;20043;-55
2023/04/16 01:48:38;;;;;;;22.20;14.93;;;8.60;99.90;;;;;;5095354;28;20051;-54
2023/04/16 01:51:06;;;;;;;20.52;13.70;;;8.60;99.90;;;;;;5109170;28;20031;-55
2023/04/16 01:53:33;;;;;;;20.40;12.80;;;8.60;99.90;;;;;;5095668;28;20036;-55
2023/04/16 01:56:04;;;;;;;22.33;14.63;;;8.60;99.90;;;;;;5095948;28;20042;-56
2023/04/16 01:58:33;;;;;;;21.75;13.38;;;8.60;99.90;;;;;;5107528;28;20043;-56
2023/04/16 02:01:00;;;;;;;20.00;13.63;;;8.60;99.90;;;;;;5093091;28;20052;-55
2023/04/16 02:03:30;;;;;;;23.15;13.75;;;8.60;99.90;;;;;;5095888;28;20051;-56
2023/04/16 02:05:57;;;;;;;22.27;13.57;;;8.60;99.90;;;;;;5111949;28;20044;-57
2023/04/16 02:08:28;;;;;;;22.48;12.90;;;8.60;99.90;;;;;;5099312;28;20301;-56
2023/04/16 02:10:56;;;;;;;17.92;11.82;;;8.60;99.90;;;;;;5111048;28;20049;-55
2023/04/16 02:13:29;;;;;;;24.30;12.85;;;8.60;99.90;;;;;;5101189;28;20048;-56
2023/04/16 02:15:57;;;;;;;18.42;11.27;;;8.50;99.90;;;;;;5107666;28;20039;-57
2023/04/16 02:18:39;;;;;;;19.73;12.43;;;8.50;99.90;;;;;;5090281;28;20051;-56
2023/04/16 02:21:07;;;;;;;18.52;11.13;;;8.60;99.90;;;;;;5111781;28;20398;-56
2023/04/16 02:23:35;;;;;;;17.40;11.15;;;8.50;99.90;;;;;;5095818;28;20046;-55
2023/04/16 02:26:03;;;;;;;20.80;12.57;;;8.50;99.90;;;;;;5095732;28;20046;-55
2023/04/16 02:28:30;;;;;;;17.25;10.75;;;8.50;99.90;;;;;;5100494;28;20040;-56
2023/04/16 02:30:58;;;;;;;16.55;10.90;;;8.50;99.90;;;;;;5088844;28;20040;-57
2023/04/16 02:33:30;;;;;;;16.92;10.65;;;8.50;99.90;;;;;;5112359;28;20487;-54
2023/04/16 02:36:01;;;;;;;18.90;10.57;;;8.50;99.90;;;;;;5078379;28;20117;-55
2023/04/16 02:38:29;;;;;;;15.27;9.88;;;8.60;99.90;;;;;;5100673;28;20048;-56
2023/04/16 02:40:58;;;;;;;17.17;10.63;;;;;;;;;;5088111;28;20047;-55
2023/04/16 02:43:25;;;;;;;18.77;11.70;;;8.50;99.90;;;;;;5095284;28;20036;-56
2023/04/16 02:45:53;;;;;;;20.15;10.43;;;8.50;99.90;;;;;;5112524;28;20391;-57
2023/04/16 02:48:20;;;;;;;16.50;11.32;;;8.50;99.90;;;;;;5113034;28;20039;-58
2023/04/16 02:50:48;;;;;;;16.85;10.27;;;8.60;99.90;;;;;;5111006;28;20513;-55
2023/04/16 02:53:15;;;;;;;17.25;11.00;;;8.50;99.90;;;;;;5093763;28;20410;-54
2023/04/16 02:55:53;;;;;;;17.70;11.05;;;8.60;99.90;;;;;;5112138;28;20039;-56
2023/04/16 02:58:23;;;;;;;20.13;11.05;;;8.60;99.90;;;;;;5092996;28;20055;-55
2023/04/16 03:00:52;;;;;;;16.33;10.43;;;8.60;99.90;;;;;;5094669;28;20410;-56
2023/04/16 03:03:20;;;;;;;22.27;11.20;;;8.50;99.90;;;;;;5094685;28;20036;-56
2023/04/16 03:05:48;;;;;;;20.77;11.93;;;;;;;;;;5109468;28;20044;-56
2023/04/16 03:08:16;;;;;;;22.85;11.93;;;8.50;99.90;;;;;;5104524;28;20044;-56
2023/04/16 03:10:43;;;;;;;21.40;11.50;;;8.50;99.90;;;;;;5093147;28;20051;-56
2023/04/16 03:13:11;;;;;;;18.13;11.82;;;8.50;99.90;;;;;;5109123;28;20051;-56
2023/04/16 03:15:39;;;;;;;15.63;10.98;;;8.40;99.90;;;;;;5082337;28;20054;-55
2023/04/16 03:18:06;;;;;;;19.33;11.63;;;8.50;99.90;;;;;;5101655;28;20044;-55
2023/04/16 03:20:34;;;;;;;19.80;12.13;;;8.50;99.90;;;;;;5074137;28;20036;-56
2023/04/16 03:23:01;;;;;;;22.08;12.27;;;8.50;99.90;;;;;;5057773;28;20447;-55
2023/04/16 03:25:29;;;;;;;22.05;12.63;;;8.40;99.90;;;;;;5082356;28;20050;-56
2023/04/16 03:27:59;;;;;;;19.75;11.85;;;8.40;99.90;;;;;;5110733;28;20055;-57
2023/04/16 03:30:27;;;;;;;23.60;12.45;;;8.40;99.90;;;;;;5094316;28;20047;-57
2023/04/16 03:32:55;;;;;;;19.13;12.48;;;8.40;99.90;;;;;;5093354;28;20510;-57
2023/04/16 03:35:22;;;;;;;19.58;12.70;;;8.40;99.90;;;;;;5089790;28;20028;-56
2023/04/16 03:37:50;;;;;;;21.73;12.55;;;8.40;99.90;;;;;;5097660;28;20051;-56
2023/04/16 03:40:18;;;;;;;21.83;12.20;;;8.40;99.90;;;;;;5092001;28;20044;-55
2023/04/16 03:42:45;;;;;;;20.85;12.75;;;8.40;99.90;;;;;;5092098;28;20051;-56
2023/04/16 03:45:14;;;;;;;21.00;13.32;;;8.30;99.90;;;;;;5109393;28;20047;-55
2023/04/16 03:47:42;;;;;;;22.33;13.20;;;8.30;99.90;;;;;;5105946;28;20044;-56
2023/04/16 03:50:10;;;;;;;21.00;12.68;;;8.30;99.90;;;;;;5073619;28;20051;-54
2023/04/16 03:52:38;;;;;;;22.30;13.20;;;8.30;99.90;;;;;;5104247;28;20542;-55
2023/04/16 03:55:06;;;;;;;25.10;14.85;;;8.30;99.90;;;;;;5108506;28;20399;-55
2023/04/16 03:57:34;;;;;;;26.02;14.60;;;8.30;99.90;;;;;;5088725;28;20039;-55
2023/04/16 04:00:08;;;;;;;23.63;13.32;;;8.20;99.90;;;;;;5110434;28;20050;-55
2023/04/16 04:02:56;;;;;;;23.52;14.55;;;8.30;99.90;;;;;;5109666;28;20043;-55
2023/04/16 04:05:24;;;;;;;26.80;14.45;;;8.20;99.90;;;;;;5092625;28;20040;-56
2023/04/16 04:07:52;;;;;;;21.42;13.93;;;8.20;99.90;;;;;;5107744;28;20036;-54
2023/04/16 04:10:20;;;;;;;21.27;14.10;;;8.20;99.90;;;;;;5110517;28;20052;-55
2023/04/16 04:12:47;;;;;;;28.88;15.98;;;8.20;99.90;;;;;;5109704;28;20047;-55
2023/04/16 04:15:15;;;;;;;25.52;14.75;;;8.20;99.90;;;;;;5108967;28;20042;-54
2023/04/16 04:17:43;;;;;;;24.67;14.43;;;8.20;99.90;;;;;;5088171;28;20047;-55
2023/04/16 04:20:11;;;;;;;25.15;15.13;;;8.20;99.90;;;;;;5105143;28;20063;-57
2023/04/16 04:22:40;;;;;;;26.83;16.38;;;8.30;99.90;;;;;;5093843;28;20051;-57
2023/04/16 04:25:09;;;;;;;24.80;15.23;;;8.20;99.90;;;;;;5109950;28;20044;-56
2023/04/16 04:27:37;;;;;;;23.93;15.07;;;8.20;99.90;;;;;;5091891;28;20058;-57
2023/04/16 04:30:05;;;;;;;22.98;14.55;;;8.20;99.90;;;;;;5089071;28;20407;-56
2023/04/16 04:32:33;;;;;;;25.88;15.23;;;8.20;99.90;;;;;;5090670;28;20043;-55
2023/04/16 04:35:02;;;;;;;30.60;16.20;;;8.20;99.90;;;;;;5092581;28;20407;-55
2023/04/16 04:37:30;;;;;;;26.42;15.88;;;8.20;99.90;;;;;;5106412;28;20050;-55
2023/04/16 04:39:57;;;;;;;26.95;15.77;;;8.20;99.90;;;;;;5085023;28;20062;-55
2023/04/16 04:42:26;;;;;;;31.58;15.48;;;8.20;99.90;;;;;;5092084;28;20036;-55
2023/04/16 04:44:54;;;;;;;23.42;14.85;;;8.20;99.90;;;;;;5092347;28;20051;-57
2023/04/16 04:47:25;;;;;;;;;;;8.20;99.90;;;;;;5089614;28;20042;-55
2023/04/16 04:49:55;;;;;;;24.67;14.73;;;8.20;99.90;;;;;;5081033;28;19920;-56
2023/04/16 04:52:23;;;;;;;27.25;16.13;;;8.20;99.90;;;;;;5087459;28;20048;-56
2023/04/16 04:54:51;;;;;;;24.52;15.50;;;8.20;99.90;;;;;;5087872;28;20439;-56
2023/04/16 04:57:19;;;;;;;25.75;15.65;;;8.20;99.90;;;;;;5102871;28;20050;-55
2023/04/16 04:59:50;;;;;;;25.25;15.27;;;8.20;99.90;;;;;;5077154;28;20062;-55
2023/04/16 05:02:18;;;;;;;23.35;15.40;;;8.20;99.90;;;;;;5057260;28;20047;-55
2023/04/16 05:04:46;;;;;;;25.88;16.35;;;8.20;99.90;;;;;;5101811;28;20048;-55
2023/04/16 05:07:14;;;;;;;27.23;16.65;;;8.20;99.90;;;;;;5098812;28;20044;-57
2023/04/16 05:09:42;;;;;;;29.05;16.38;;;8.20;99.90;;;;;;5100512;28;20262;-55
2023/04/16 05:12:12;;;;;;;29.73;15.45;;;8.20;99.90;;;;;;5102255;28;20058;-56
2023/04/16 05:14:40;;;;;;;25.45;16.08;;;8.20;99.90;;;;;;5096289;28;20047;-55
2023/04/16 05:17:09;;;;;;;26.30;15.30;;;8.20;99.90;;;;;;5094528;28;20451;-55
2023/04/16 05:19:37;;;;;;;31.13;16.98;;;8.20;99.90;;;;;;5102530;28;20039;-57
2023/04/16 05:22:05;;;;;;;26.63;16.05;;;8.20;99.90;;;;;;5085210;28;20055;-55
2023/04/16 05:24:32;;;;;;;24.85;15.05;;;8.20;99.90;;;;;;5102364;28;20058;-55
2023/04/16 05:27:00;;;;;;;31.17;16.02;;;8.20;99.90;;;;;;5108037;28;20392;-56
2023/04/16 05:29:28;;;;;;;24.15;15.25;;;8.20;99.90;;;;;;5091363;28;20074;-55
2023/04/16 05:31:56;;;;;;;26.83;15.10;;;8.20;99.90;;;;;;5099050;28;20036;-55
2023/04/16 05:34:25;;;;;;;27.42;15.75;;;8.10;99.90;;;;;;5104882;28;20060;-55
2023/04/16 05:36:53;;;;;;;24.83;14.13;;;8.20;99.90;;;;;;5091058;28;20051;-54
2023/04/16 05:39:21;;;;;;;26.80;15.68;;;8.20;99.90;;;;;;5106212;28;20392;-55
2023/04/16 05:41:48;;;;;;;25.08;14.07;;;7.90;99.90;;;;;;5108309;28;20054;-57
2023/04/16 05:44:16;;;;;;;22.92;14.27;;;8.20;99.90;;;;;;5105194;28;20048;-56
2023/04/16 05:46:43;;;;;;;24.02;13.30;;;8.20;99.90;;;;;;5105273;28;20044;-56
2023/04/16 05:49:11;;;;;;;24.10;12.73;;;8.20;99.90;;;;;;5105384;28;20046;-54
2023/04/16 05:51:39;;;;;;;22.92;13.65;;;8.20;99.90;;;;;;5089250;28;20043;-56
2023/04/16 05:54:06;;;;;;;27.50;12.60;;;8.30;99.90;;;;;;5107093;28;20059;-54
2023/04/16 05:56:34;;;;;;;21.38;13.20;;;8.30;99.90;;;;;;5105258;28;20043;-55
2023/04/16 05:59:01;;;;;;;25.80;14.57;;;8.30;99.90;;;;;;5103403;28;20040;-56
2023/04/16 06:01:29;;;;;;;23.27;14.15;;;8.30;99.90;;;;;;5090383;28;20424;-55
2023/04/16 06:03:59;;;;;;;25.20;13.77;;;8.40;99.90;;;;;;5087921;28;20058;-55
2023/04/16 06:06:27;;;;;;;22.02;13.75;;;8.30;99.90;;;;;;5111066;28;20051;-55
2023/04/16 06:08:54;;;;;;;25.13;13.23;;;8.40;99.90;;;;;;5108025;28;20043;-57
2023/04/16 06:11:26;;;;;;;24.25;14.00;;;8.40;99.90;;;;;;5108884;28;20052;-55
2023/04/16 06:13:54;;;;;;;24.83;13.52;;;8.50;99.90;;;;;;5110737;28;20491;-56
2023/04/16 06:16:21;;;;;;;24.88;14.75;;;8.50;99.90;;;;;;5106096;28;20050;-55
2023/04/16 06:18:49;;;;;;;26.60;14.30;;;8.60;99.90;;;;;;5104658;28;20055;-54
2023/04/16 06:21:17;;;;;;;26.90;15.95;;;8.60;99.90;;;;;;5104409;28;20040;-55
2023/04/16 06:23:44;;;;;;;24.75;14.75;;;8.60;99.90;;;;;;5105124;28;20105;-55
2023/04/16 06:26:12;;;;;;;21.45;13.88;;;8.70;99.90;;;;;;5105070;28;20400;-56
2023/04/16 06:28:39;;;;;;;18.17;12.00;;;8.70;99.90;;;;;;5106626;28;20047;-57
2023/04/16 06:31:07;;;;;;;19.25;10.80;;;8.70;99.90;;;;;;5103359;28;20403;-54
2023/04/16 06:33:35;;;;;;;16.38;10.50;;;8.70;99.90;;;;;;5105305;28;20648;-56
2023/04/16 06:36:02;;;;;;;13.48;7.35;;;8.80;99.90;;;;;;5103018;28;20051;-56
2023/04/16 06:38:30;;;;;;;11.38;7.15;;;8.80;99.90;;;;;;5086137;28;20620;-56
2023/04/16 06:40:58;;;;;;;9.57;5.80;;;8.70;99.90;;;;;;5107058;28;20051;-56
2023/04/16 06:43:26;;;;;;;8.50;5.82;;;8.80;99.90;;;;;;5107761;28;20047;-57
2023/04/16 06:45:57;;;;;;;15.02;8.35;;;8.80;99.90;;;;;;5106552;28;20048;-57
2023/04/16 06:48:24;;;;;;;13.75;8.85;;;8.90;99.90;;;;;;5097764;28;20043;-55
2023/04/16 06:50:55;;;;;;;;;;;8.80;99.90;;;;;;5098760;28;20459;-56
2023/04/16 06:53:25;;;;;;;10.07;6.35;;;8.80;99.90;;;;;;5102560;28;19926;-56
2023/04/16 06:55:53;;;;;;;6.72;3.88;;;8.80;99.90;;;;;;5099975;28;20044;-54
2023/04/16 06:58:21;;;;;;;4.50;3.28;;;8.80;99.90;;;;;;5095981;28;20048;-56
2023/04/16 07:00:48;;;;;;;6.72;2.83;;;8.80;99.90;;;;;;5104600;28;20054;-57
2023/04/16 07:03:16;;;;;;;4.53;2.72;;;8.80;99.90;;;;;;5105350;28;20062;-56
2023/04/16 07:05:44;;;;;;;6.90;3.20;;;8.70;99.90;;;;;;5104009;28;20044;-54
2023/04/16 07:08:11;;;;;;;5.78;3.20;;;8.70;99.90;;;;;;5105481;28;20059;-55
2023/04/16 07:10:39;;;;;;;5.15;2.55;;;8.70;99.90;;;;;;5107592;28;20050;-56
2023/04/16 07:13:07;;;;;;;8.35;2.10;;;8.60;99.90;;;;;;5088219;28;20040;-57
2023/04/16 07:15:37;;;;;;;5.10;1.67;;;8.60;99.90;;;;;;5098713;28;20052;-56
2023/04/16 07:18:05;;;;;;;5.82;2.08;;;;;;;;;;5106424;28;20047;-56
2023/04/16 07:20:33;;;;;;;4.78;2.40;;;8.50;99.90;;;;;;5106238;28;20062;-55
2023/04/16 07:23:00;;;;;;;4.00;2.28;;;8.50;99.90;;;;;;5108795;28;20047;-55
2023/04/16 07:25:28;;;;;;;8.50;2.78;;;8.50;99.90;;;;;;5090368;28;20047;-56
2023/04/16 07:27:56;;;;;;;3.63;2.38;;;8.40;99.90;;;;;;5104867;28;20129;-57
2023/04/16 07:30:23;;;;;;;4.88;2.40;;;8.40;99.90;;;;;;5097533;28;20043;-57
2023/04/16 07:32:51;;;;;;;7.40;2.72;;;8.40;99.90;;;;;;5109117;28;20039;-56
2023/04/16 07:35:19;;;;;;;4.20;2.60;;;8.40;99.90;;;;;;5070420;28;20056;-56
2023/04/16 07:37:47;;;;;;;2.97;1.90;;;8.50;99.90;;;;;;5099020;28;20525;-54
2023/04/16 07:40:15;;;;;;;2.85;1.60;;;8.50;99.90;;;;;;5108779;28;20446;-56
2023/04/16 07:42:42;;;;;;;2.55;1.05;;;8.50;99.90;;;;;;5107550;28;20040;-55
2023/04/16 07:45:10;;;;;;;2.40;1.33;;;8.60;99.90;;;;;;5088847;28;20043;-55
2023/04/16 07:47:38;;;;;;;1.83;0.80;;;8.60;99.90;;;;;;5107457;28;20482;-55
2023/04/16 07:50:06;;;;;;;1.60;0.90;;;8.60;99.90;;;;;;5104561;28;20043;-56
2023/04/16 07:52:34;;;;;;;2.90;0.80;;;8.60;99.90;;;;;;5103740;28;20031;-55
2023/04/16 07:55:02;;;;;;;1.13;0.43;;;8.60;99.90;;;;;;5101188;28;20040;-56
2023/04/16 07:57:30;;;;;;;4.10;0.60;;;8.70;99.90;;;;;;5099406;28;20035;-56
2023/04/16 07:59:57;;;;;;;2.92;0.70;;;8.80;99.90;;;;;;5106263;28;20058;-56
2023/04/16 08:02:26;;;;;;;0.75;0.50;;;;;;;;;;5108018;28;20507;-56
2023/04/16 08:04:56;;;;;;;2.90;1.70;;;8.90;99.90;;;;;;5080222;28;20048;-55
2023/04/16 08:07:24;;;;;;;1.80;0.60;;;8.90;99.90;;;;;;5090470;28;20539;-57
2023/04/16 08:09:53;;;;;;;4.25;0.65;;;8.90;99.90;;;;;;5107964;28;20051;-54
2023/04/16 08:12:21;;;;;;;3.40;1.65;;;9.00;99.90;;;;;;5107066;28;20049;-55
2023/04/16 08:14:48;;;;;;;1.27;0.57;;;9.00;99.90;;;;;;5107372;28;20056;-56
2023/04/16 08:17:16;;;;;;;5.05;0.73;;;9.00;99.90;;;;;;5107060;28;20040;-55
2023/04/16 08:19:44;;;;;;;4.35;0.50;;;9.00;99.90;;;;;;5107820;28;20406;-55
2023/04/16 08:22:12;;;;;;;3.03;0.93;;;9.00;99.90;;;;;;5108023;28;20047;-55
2023/04/16 08:24:40;;;;;;;2.42;0.70;;;9.00;99.90;;;;;;5108372;28;20055;-56
2023/04/16 08:27:09;;;;;;;1.75;0.60;;;9.00;99.90;;;;;;5108124;28;20054;-55
2023/04/16 08:29:47;;;;;;;1.95;0.60;;;9.00;99.90;;;;;;5088024;28;20059;-55
2023/04/16 08:32:14;;;;;;;1.40;0.70;;;9.00;99.90;;;;;;5096879;28;20055;-56
2023/04/16 08:34:42;;;;;;;5.28;0.82;;;8.90;99.90;;;;;;5085813;28;20040;-55
2023/04/16 08:37:10;;;;;;;6.50;0.70;;;8.90;99.90;;;;;;5088509;28;20052;-55
2023/04/16 08:39:37;;;;;;;2.70;0.70;;;8.90;99.90;;;;;;5108131;28;20040;-56
2023/04/16 08:42:10;;;;;;;3.30;0.80;;;8.90;99.90;;;;;;5104345;28;20040;-56
2023/04/16 08:44:43;;;;;;;5.25;0.70;;;8.90;99.90;;;;;;5108338;28;20062;-57
2023/04/16 08:47:12;;;;;;;2.40;1.02;;;8.90;99.90;;;;;;5107973;28;20058;-58
2023/04/16 08:49:43;;;;;;;1.00;0.70;;;9.00;99.90;;;;;;5103902;28;20047;-56
2023/04/16 08:52:19;;;;;;;2.80;0.93;;;9.00;99.90;;;;;;5107856;28;20050;-55
2023/04/16 08:55:11;;;;;;;2.65;1.08;;;9.00;99.90;;;;;;5103728;28;20043;-55
2023/04/16 08:58:02;;;;;;;1.75;1.00;;;9.10;99.90;;;;;;5106703;28;20051;-57
2023/04/16 09:00:31;;;;;;;2.90;0.77;;;9.10;99.90;;;;;;5110308;28;20048;-55
2023/04/16 09:02:59;;;;;;;3.47;0.80;;;9.10;99.90;;;;;;5093561;28;20047;-56
2023/04/16 09:05:28;;;;;;;3.60;0.90;;;9.10;99.90;;;;;;5109499;28;20041;-55
2023/04/16 09:07:56;;;;;;;6.00;1.00;;;9.10;99.90;;;;;;5111178;28;20040;-57
2023/04/16 09:10:25;;;;;;;4.47;1.42;;;9.10;99.90;;;;;;5097498;28;20051;-56
2023/04/16 09:12:59;;;;;;;4.45;0.88;;;9.10;99.90;;;;;;5097881;28;20047;-55
2023/04/16 09:15:28;;;;;;;4.20;0.85;;;9.10;99.90;;;;;;5111883;28;20058;-56
2023/04/16 09:17:56;;;;;;;3.40;0.80;;;9.10;99.90;;;;;;5106891;28;20059;-55
2023/04/16 09:20:24;;;;;;;3.67;0.90;;;9.30;99.90;;;;;;5101269;28;20039;-57
2023/04/16 09:22:51;;;;;;;3.35;1.63;;;9.30;99.90;;;;;;5097979;28;20087;-54
2023/04/16 09:25:21;;;;;;;4.32;1.33;;;9.40;99.90;;;;;;5108062;28;20066;-54
2023/04/16 09:27:49;;;;;;;2.35;1.67;;;9.40;99.90;;;;;;5111464;28;20051;-55
2023/04/16 09:30:20;;;;;;;3.67;1.00;;;9.40;99.90;;;;;;5110792;28;20371;-55
2023/04/16 09:32:50;;;;;;;5.57;1.17;;;9.50;99.90;;;;;;5101583;28;20054;-55
2023/04/16 09:35:21;;;;;;;8.90;1.90;;;9.50;99.90;;;;;;5085562;28;20494;-55
2023/04/16 09:37:56;;;;;;;3.83;1.10;;;9.50;99.90;;;;;;5096871;28;20044;-55
2023/04/16 09:40:25;;;;;;;5.50;1.35;;;9.40;99.90;;;;;;5110308;28;20048;-54
2023/04/16 09:42:56;;;;;;;;;;;9.50;99.90;;;;;;5103976;28;20044;-54
2023/04/16 09:45:23;;;;;;;4.53;1.00;;;9.40;99.90;;;;;;5109975;28;19923;-57
2023/04/16 09:47:51;;;;;;;3.33;1.30;;;9.50;99.90;;;;;;5103362;28;20399;-56
2023/04/16 09:50:19;;;;;;;4.90;1.55;;;9.50;99.90;;;;;;5105369;28;20095;-55
2023/04/16 09:52:51;;;;;;;5.10;1.00;;;9.40;99.90;;;;;;5099522;28;20060;-55
2023/04/16 09:55:25;;;;;;;2.20;1.13;;;9.40;99.90;;;;;;5097048;28;20035;-54
2023/04/16 09:57:59;;;;;;;1.83;0.63;;;9.40;99.90;;;;;;5109111;28;20071;-55
2023/04/16 10:00:29;;;;;;;1.08;0.50;;;9.40;99.90;;;;;;5092989;28;20036;-55
2023/04/16 10:03:05;;;;;;;1.90;0.47;;;9.40;99.90;;;;;;5097300;28;20047;-56
2023/04/16 10:05:32;;;;;;;0.60;0.28;;;9.30;99.90;;;;;;5110261;28;20677;-55
2023/04/16 10:08:01;;;;;;;3.42;0.82;;;9.30;99.90;;;;;;5110660;28;20036;-56
2023/04/16 10:10:28;;;;;;;1.00;0.57;;;9.30;99.90;;;;;;5092373;28;20052;-55
2023/04/16 10:12:56;;;;;;;0.95;0.40;;;10.40;99.90;;;;;;5109123;28;20647;-55
2023/04/16 10:15:24;;;;;;;1.95;0.70;;;9.30;99.90;;;;;;5109762;28;20040;-55
2023/04/16 10:17:53;;;;;;;0.98;0.57;;;9.40;99.90;;;;;;5108560;28;20039;-56
2023/04/16 10:20:22;;;;;;;1.13;0.82;;;9.30;99.90;;;;;;5110001;28;20395;-56
2023/04/16 10:22:50;;;;;;;4.35;1.00;;;9.40;99.90;;;;;;5110580;28;20063;-55
2023/04/16 10:25:19;;;;;;;1.08;0.70;;;9.40;99.90;;;;;;5109525;28;20039;-56
2023/04/16 10:27:47;;;;;;;6.93;2.10;;;9.60;99.90;;;;;;5109956;28;20043;-54
2023/04/16 10:30:19;;;;;;;7.97;2.80;;;9.90;99.90;;;;;;5108685;28;20062;-56
2023/04/16 10:32:47;;;;;;;2.95;1.20;;;9.90;99.90;;;;;;5107023;28;20047;-54
2023/04/16 10:35:19;;;;;;;3.42;0.98;;;10.10;99.90;;;;;;5105921;28;20039;-55
2023/04/16 10:37:47;;;;;;;1.65;0.70;;;10.20;99.90;;;;;;5106567;28;20051;-55
2023/04/16 10:40:25;;;;;;;5.95;0.68;;;10.30;99.90;;;;;;5071767;28;20392;-55
2023/04/16 10:42:55;;;;;;;2.42;0.73;;;10.30;99.90;;;;;;5092114;28;20407;-56
2023/04/16 10:45:40;;;;;;;1.83;0.85;;;10.30;99.90;;;;;;5099865;28;20047;-56
2023/04/16 10:48:08;;;;;;;6.50;1.65;;;10.40;99.90;;;;;;5099661;28;20418;-55
2023/04/16 10:50:36;;;;;;;3.35;0.88;;;10.40;99.90;;;;;;5095500;28;20110;-54
2023/04/16 10:53:19;;;;;;;5.28;2.17;;;10.50;99.90;;;;;;5098455;28;20058;-55
2023/04/16 10:56:03;;;;;;;3.35;0.80;;;10.50;99.90;;;;;;5094846;28;20044;-55
2023/04/16 10:58:34;;;;;;;2.22;1.25;;;10.60;99.90;;;;;;5094232;28;20040;-56
2023/04/16 11:01:13;;;;;;;3.20;1.52;;;10.60;99.90;;;;;;5104245;28;20044;-56
2023/04/16 11:03:43;;;;;;;;;;;10.60;99.90;;;;;;5094725;28;20048;-56
2023/04/16 11:06:36;;;;;;;5.43;2.03;;;10.70;99.90;;;;;;5104180;28;19920;-56
2023/04/16 11:09:04;;;;;;;2.20;0.88;;;10.70;99.90;;;;;;5104499;28;20043;-57
2023/04/16 11:11:38;;;;;;;3.05;1.17;;;10.70;99.90;;;;;;5108503;28;20059;-56
2023/04/16 11:14:09;;;;;;;5.03;2.15;;;10.70;99.90;;;;;;5082878;28;20066;-55
2023/04/16 11:16:39;;;;;;;3.35;1.23;;;10.70;99.90;;;;;;5109554;28;20047;-57
2023/04/16 11:19:07;;;;;;;3.05;1.17;;;;;;;;;;5096198;28;20052;-56
2023/04/16 11:21:35;;;;;;;3.58;1.60;;;10.60;99.90;;;;;;5106374;28;20066;-56
2023/04/16 11:24:03;;;;;;;3.22;1.20;;;10.60;99.90;;;;;;5106650;28;20051;-55
2023/04/16 11:26:30;;;;;;;5.57;1.63;;;10.70;99.90;;;;;;5108966;28;20047;-56
2023/04/16 11:28:59;;;;;;;3.85;1.52;;;10.70;99.90;;;;;;5096540;28;20395;-56
2023/04/16 11:31:29;;;;;;;4.65;1.30;;;10.70;99.90;;;;;;5109180;28;20048;-56
2023/04/16 11:33:57;;;;;;;3.42;1.30;;;10.70;99.90;;;;;;5107730;28;20055;-56
2023/04/16 11:36:26;;;;;;;3.88;1.30;;;10.80;99.90;;;;;;5099406;28;20094;-55
2023/04/16 11:39:01;;;;;;;2.67;1.13;;;10.80;99.90;;;;;;5082561;28;20036;-56
2023/04/16 11:41:29;;;;;;;4.60;1.10;;;10.90;99.90;;;;;;5078267;28;20048;-56
2023/04/16 11:43:57;;;;;;;3.85;1.40;;;11.00;99.90;;;;;;5088120;28;20487;-56
2023/04/16 11:46:38;;;;;;;2.17;0.95;;;11.00;99.90;;;;;;5078897;28;20403;-57
2023/04/16 11:49:07;;;;;;;9.65;1.98;;;11.00;99.90;;;;;;5097381;28;20049;-56
2023/04/16 11:51:40;;;;;;;4.30;1.33;;;11.00;99.90;;;;;;5078262;28;20044;-57
2023/04/16 11:54:09;;;;;;;4.05;1.83;;;11.00;99.90;;;;;;5078448;28;20055;-57
2023/04/16 11:56:46;;;;;;;4.95;1.02;;;11.00;99.90;;;;;;5080706;28;20473;-59
2023/04/16 11:59:19;;;;;;;7.60;1.23;;;11.10;99.90;;;;;;5075063;28;20059;-56
2023/04/16 12:01:54;;;;;;;2.40;0.90;;;11.10;99.90;;;;;;5081570;28;20040;-56
2023/04/16 12:04:26;;;;;;;3.15;1.20;;;11.10;99.90;;;;;;5077182;28;20492;-56
2023/04/16 12:07:11;;;;;;;19.02;3.60;;;11.10;99.90;;;;;;5079587;28;20056;-55
2023/04/16 12:09:42;;;;;;;7.68;1.42;;;11.10;99.90;;;;;;5071126;28;20059;-54
2023/04/16 12:12:29;;;;;;;4.43;1.10;;;11.00;99.90;;;;;;5080001;28;20411;-56
2023/04/16 12:15:02;;;;;;;2.92;1.27;;;10.90;99.90;;;;;;5081950;28;20558;-56
2023/04/16 12:17:32;;;;;;;2.15;1.20;;;10.90;99.90;;;;;;5084185;28;20048;-55
2023/04/16 12:20:04;;;;;;;5.68;1.27;;;10.90;99.90;;;;;;5086430;28;20051;-56
2023/04/16 12:22:34;;;;;;;4.45;1.40;;;10.90;99.90;;;;;;5085959;28;20040;-56
2023/04/16 12:25:06;;;;;;;4.45;1.33;;;11.00;99.90;;;;;;5066154;28;20060;-56
2023/04/16 12:27:55;;;;;;;5.82;1.58;;;11.10;99.90;;;;;;5074330;28;20043;-53
2023/04/16 12:30:25;;;;;;;;;;;11.20;99.90;;;;;;5087828;28;20508;-55
2023/04/16 12:33:13;;;;;;;3.88;1.48;;;11.20;99.90;;;;;;5085550;28;20276;-57
2023/04/16 12:35:42;;;;;;;2.67;1.42;;;11.30;99.90;;;;;;5090297;28;20063;-56
2023/04/16 12:38:10;;;;;;;7.32;1.60;;;11.40;99.90;;;;;;5106885;28;20043;-56
2023/04/16 12:40:38;;;;;;;4.28;1.90;;;11.60;99.90;;;;;;5101528;28;20040;-57
2023/04/16 12:43:07;;;;;;;7.47;2.10;;;11.70;99.90;;;;;;5101721;28;20530;-55
2023/04/16 12:45:35;;;;;;;4.88;1.77;;;11.70;99.90;;;;;;5104289;28;20052;-57
2023/04/16 12:48:02;;;;;;;3.47;1.48;;;11.80;99.90;;;;;;5106678;28;20055;-55
2023/04/16 12:50:30;;;;;;;6.95;2.30;;;12.00;99.90;;;;;;5111797;28;20048;-56
2023/04/16 12:52:58;;;;;;;10.35;1.70;;;12.10;99.90;;;;;;5106813;28;20438;-57
2023/04/16 12:55:26;;;;;;;7.25;2.63;;;12.20;99.90;;;;;;5110172;28;20526;-56
2023/04/16 12:57:56;;;;;;;5.18;2.60;;;12.30;99.90;;;;;;5112136;28;20058;-56
2023/04/16 13:00:24;;;;;;;6.15;2.33;;;12.50;99.90;;;;;;5112180;28;20372;-56